TimeEDT,TemperatureF,Dew PointF,Humidity,Sea Level PressureIn,VisibilityMPH,Wind Direction,Wind SpeedMPH,Gust SpeedMPH,PrecipitationIn,Events,Conditions,WindDirDegrees,DateUTC
12:56 AM,72.0,69.1,91,30.02,10.0,WSW,6.9,-,N/A,,Mostly Cloudy,240,2013-07-30 04:56:00
1:56 AM,70.0,68.0,93,30.02,10.0,SW,3.5,-,N/A,,Clear,230,2013-07-30 05:56:00
2:56 AM,69.1,68.0,96,30.02,10.0,WSW,3.5,-,N/A,,Clear,250,2013-07-30 06:56:00
3:56 AM,70.0,66.9,90,30.01,10.0,Calm,Calm,-,N/A,,Clear,0,2013-07-30 07:56:00
4:56 AM,69.1,66.0,90,30.02,10.0,North,9.2,-,N/A,,Clear,360,2013-07-30 08:56:00
5:01 AM,68.0,66.2,94,30.02,2.5,North,9.2,-,N/A,,Scattered Clouds,360,2013-07-30 09:01:00
5:05 AM,68.0,66.2,94,30.02,1.5,North,9.2,-,N/A,,Mostly Cloudy,360,2013-07-30 09:05:00
5:29 AM,68.0,66.2,94,30.03,3.0,North,6.9,-,N/A,,Overcast,350,2013-07-30 09:29:00
5:56 AM,66.9,66.0,97,30.04,8.0,North,9.2,-,N/A,,Scattered Clouds,350,2013-07-30 09:56:00
5:59 AM,66.2,66.2,100,30.04,8.0,North,8.1,-,N/A,,Mostly Cloudy,350,2013-07-30 09:59:00
6:19 AM,66.2,66.2,100,30.04,8.0,North,8.1,-,N/A,,Partly Cloudy,350,2013-07-30 10:19:00
6:56 AM,66.9,64.9,93,30.04,7.0,North,5.8,-,N/A,,Clear,360,2013-07-30 10:56:00
7:28 AM,68.0,66.2,94,30.05,6.0,North,4.6,-,N/A,,Partly Cloudy,360,2013-07-30 11:28:00
7:56 AM,69.1,66.0,90,30.06,9.0,NNW,5.8,-,N/A,,Clear,340,2013-07-30 11:56:00
8:56 AM,73.0,60.1,64,30.06,10.0,North,9.2,-,N/A,,Clear,350,2013-07-30 12:56:00
9:56 AM,73.9,57.9,57,30.08,10.0,NNW,10.4,17.3,N/A,,Clear,340,2013-07-30 13:56:00
10:56 AM,75.0,59.0,57,30.08,10.0,NNW,9.2,18.4,N/A,,Clear,340,2013-07-30 14:56:00
11:56 AM,75.9,59.0,56,30.08,10.0,North,10.4,-,N/A,,Clear,10,2013-07-30 15:56:00
12:56 PM,78.1,60.1,54,30.06,10.0,NNE,11.5,-,N/A,,Clear,20,2013-07-30 16:56:00
1:56 PM,78.1,57.0,48,30.06,10.0,North,5.8,-,N/A,,Clear,360,2013-07-30 17:56:00
2:56 PM,78.1,59.0,52,30.05,10.0,Variable,4.6,-,N/A,,Clear,0,2013-07-30 18:56:00
3:56 PM,77.0,61.0,58,30.05,10.0,SSE,8.1,-,N/A,,Scattered Clouds,150,2013-07-30 19:56:00
4:56 PM,77.0,61.0,58,30.04,10.0,South,6.9,-,N/A,,Clear,190,2013-07-30 20:56:00
5:56 PM,77.0,61.0,58,30.05,10.0,South,5.8,-,N/A,,Clear,190,2013-07-30 21:56:00
6:56 PM,75.0,63.0,66,30.05,10.0,SW,10.4,-,N/A,,Clear,230,2013-07-30 22:56:00
7:56 PM,73.0,64.0,73,30.07,10.0,SW,9.2,-,N/A,,Partly Cloudy,230,2013-07-30 23:56:00
8:56 PM,72.0,64.9,78,30.08,10.0,SW,3.5,-,N/A,,Partly Cloudy,220,2013-07-31 00:56:00
9:56 PM,71.1,64.9,81,30.09,10.0,WSW,4.6,-,N/A,,Scattered Clouds,250,2013-07-31 01:56:00
10:56 PM,71.1,64.9,81,30.08,10.0,Calm,Calm,-,N/A,,Partly Cloudy,0,2013-07-31 02:56:00
11:56 PM,70.0,61.0,73,30.08,10.0,West,3.5,-,N/A,,Clear,270,2013-07-31 03:56:00